ACA591 CYYZ-KIAH
Flight info
| Callsign | ACA591 |
|---|---|
| Flight time | N/A |
| Altitude | 38000 |
| Route | MIXUT7 GNTRY DCT RINTE DCT TIIDE Q31 DHART Q33 SWEUP DOOBI3 |
| Aircraft | A320/M-SDE3FGHIRWY/LB1 |
Departure
| Time | N/A |
|---|---|
| Airport | Toronto Pearson International Airport (CYYZ) |
Arrival
| Time | 2026-05-03 21:44 |
|---|---|
| Airport | George Bush Intercontinental Airport (KIAH) |
| Time | Latitude | Longitude | Altitude | Speed | Heading |
|---|---|---|---|---|---|
| 2026-05-03 20:15 | 36.70031 | -88.72175 | 38118 ft | 412 kts | 224° |
| 2026-05-03 20:15 | 36.65466 | -88.76510 | 38124 ft | 413 kts | 224° |
| 2026-05-03 20:16 | 36.60889 | -88.80838 | 38130 ft | 413 kts | 224° |
| 2026-05-03 20:16 | 36.56311 | -88.85162 | 38139 ft | 413 kts | 224° |
| 2026-05-03 20:17 | 36.51735 | -88.89500 | 38115 ft | 414 kts | 224° |
| 2026-05-03 20:17 | 36.47188 | -88.93810 | 38102 ft | 414 kts | 224° |
| 2026-05-03 20:18 | 36.42599 | -88.98142 | 38115 ft | 414 kts | 223° |
| 2026-05-03 20:18 | 36.37998 | -89.02457 | 38130 ft | 415 kts | 223° |
| 2026-05-03 20:19 | 36.33400 | -89.06773 | 38155 ft | 415 kts | 223° |
| 2026-05-03 20:19 | 36.28805 | -89.11098 | 38154 ft | 415 kts | 223° |
| 2026-05-03 20:20 | 36.24210 | -89.15412 | 38135 ft | 415 kts | 223° |
| 2026-05-03 20:20 | 36.19607 | -89.19713 | 38152 ft | 414 kts | 223° |
| 2026-05-03 20:21 | 36.15011 | -89.24008 | 38155 ft | 414 kts | 223° |
| 2026-05-03 20:21 | 36.10414 | -89.28295 | 38157 ft | 414 kts | 223° |
| 2026-05-03 20:22 | 36.05813 | -89.32577 | 38155 ft | 414 kts | 223° |
| 2026-05-03 20:22 | 36.01214 | -89.36859 | 38155 ft | 414 kts | 223° |
| 2026-05-03 20:23 | 35.96609 | -89.41139 | 38155 ft | 414 kts | 223° |
| 2026-05-03 20:23 | 35.92006 | -89.45411 | 38155 ft | 414 kts | 223° |
| 2026-05-03 20:24 | 35.87397 | -89.49682 | 38156 ft | 415 kts | 223° |
| 2026-05-03 20:24 | 35.82782 | -89.53951 | 38153 ft | 415 kts | 223° |
| 2026-05-03 20:25 | 35.78162 | -89.58214 | 38150 ft | 415 kts | 223° |
| 2026-05-03 20:25 | 35.73541 | -89.62470 | 38132 ft | 415 kts | 223° |
| 2026-05-03 20:26 | 35.68920 | -89.66725 | 38141 ft | 415 kts | 223° |
| 2026-05-03 20:26 | 35.64297 | -89.70975 | 38143 ft | 414 kts | 223° |
| 2026-05-03 20:27 | 35.59679 | -89.75219 | 38147 ft | 414 kts | 223° |
| 2026-05-03 20:27 | 35.55837 | -89.78738 | 38147 ft | 415 kts | 223° |
| 2026-05-03 20:28 | 35.51211 | -89.82967 | 38148 ft | 415 kts | 223° |
| 2026-05-03 20:28 | 35.46582 | -89.87196 | 38131 ft | 415 kts | 223° |
| 2026-05-03 20:29 | 35.41958 | -89.91427 | 38136 ft | 415 kts | 223° |
| 2026-05-03 20:29 | 35.37329 | -89.95648 | 38139 ft | 415 kts | 223° |
| 2026-05-03 20:30 | 35.32694 | -89.99860 | 38132 ft | 415 kts | 223° |
| 2026-05-03 20:30 | 35.28060 | -90.04073 | 38134 ft | 415 kts | 223° |
| 2026-05-03 20:31 | 35.23417 | -90.08288 | 38121 ft | 416 kts | 223° |
| 2026-05-03 20:31 | 35.18764 | -90.12496 | 38126 ft | 416 kts | 223° |
| 2026-05-03 20:32 | 35.14105 | -90.16710 | 38122 ft | 417 kts | 223° |
| 2026-05-03 20:32 | 35.09444 | -90.20923 | 38138 ft | 417 kts | 223° |
| 2026-05-03 20:33 | 35.04780 | -90.25135 | 38129 ft | 417 kts | 222° |
| 2026-05-03 20:33 | 35.00112 | -90.29340 | 38136 ft | 417 kts | 222° |
| 2026-05-03 20:34 | 34.95443 | -90.33542 | 38115 ft | 417 kts | 222° |
| 2026-05-03 20:34 | 34.90765 | -90.37739 | 38123 ft | 418 kts | 222° |
| 2026-05-03 20:35 | 34.86078 | -90.41932 | 38116 ft | 418 kts | 222° |
| 2026-05-03 20:35 | 34.81389 | -90.46135 | 38128 ft | 419 kts | 223° |
| 2026-05-03 20:36 | 34.76691 | -90.50340 | 38130 ft | 419 kts | 222° |
| 2026-05-03 20:36 | 34.71990 | -90.54542 | 38114 ft | 420 kts | 222° |
| 2026-05-03 20:37 | 34.67276 | -90.58743 | 38122 ft | 420 kts | 222° |
| 2026-05-03 20:37 | 34.62589 | -90.62911 | 38131 ft | 421 kts | 222° |
| 2026-05-03 20:38 | 34.57973 | -90.67235 | 38136 ft | 415 kts | 230° |
| 2026-05-03 20:38 | 34.54417 | -90.72611 | 38142 ft | 407 kts | 240° |
| 2026-05-03 20:39 | 34.51100 | -90.78190 | 38131 ft | 408 kts | 240° |
| 2026-05-03 20:39 | 34.47765 | -90.83760 | 38136 ft | 409 kts | 240° |
| 2026-05-03 20:40 | 34.44420 | -90.89331 | 38122 ft | 409 kts | 240° |
| 2026-05-03 20:40 | 34.41070 | -90.94907 | 38140 ft | 410 kts | 240° |
| 2026-05-03 20:41 | 34.37713 | -91.00487 | 38145 ft | 410 kts | 239° |
| 2026-05-03 20:41 | 34.34351 | -91.06065 | 38152 ft | 410 kts | 239° |
| 2026-05-03 20:42 | 34.30986 | -91.11645 | 38161 ft | 411 kts | 239° |
| 2026-05-03 20:42 | 34.27615 | -91.17227 | 38156 ft | 411 kts | 240° |
| 2026-05-03 20:43 | 34.24240 | -91.22811 | 38161 ft | 412 kts | 240° |
| 2026-05-03 20:43 | 34.20857 | -91.28397 | 38149 ft | 412 kts | 240° |
| 2026-05-03 20:44 | 34.17467 | -91.33978 | 38156 ft | 412 kts | 240° |
| 2026-05-03 20:44 | 34.14069 | -91.39560 | 38160 ft | 413 kts | 240° |
| 2026-05-03 20:45 | 34.10673 | -91.45146 | 38162 ft | 413 kts | 240° |
| 2026-05-03 20:45 | 34.07269 | -91.50724 | 38161 ft | 413 kts | 240° |
| 2026-05-03 20:46 | 34.03855 | -91.56298 | 38142 ft | 413 kts | 240° |
| 2026-05-03 20:46 | 34.00447 | -91.61874 | 38150 ft | 413 kts | 240° |
| 2026-05-03 20:47 | 33.97040 | -91.67454 | 38146 ft | 413 kts | 240° |
| 2026-05-03 20:47 | 33.93622 | -91.73021 | 38134 ft | 413 kts | 240° |
| 2026-05-03 20:48 | 33.90200 | -91.78583 | 38145 ft | 414 kts | 240° |
| 2026-05-03 20:48 | 33.86795 | -91.84112 | 38148 ft | 414 kts | 240° |
| 2026-05-03 20:49 | 33.83374 | -91.89672 | 38144 ft | 413 kts | 240° |
| 2026-05-03 20:49 | 33.79922 | -91.95263 | 38124 ft | 414 kts | 240° |
| 2026-05-03 20:50 | 33.76511 | -92.00780 | 38128 ft | 414 kts | 240° |
| 2026-05-03 20:50 | 33.73073 | -92.06332 | 38139 ft | 414 kts | 240° |
| 2026-05-03 20:51 | 33.69629 | -92.11883 | 38143 ft | 414 kts | 240° |
| 2026-05-03 20:51 | 33.65960 | -92.17256 | 38131 ft | 423 kts | 230° |
| 2026-05-03 20:52 | 33.61316 | -92.21706 | 38131 ft | 428 kts | 225° |
| 2026-05-03 20:52 | 33.56631 | -92.26117 | 38133 ft | 428 kts | 226° |
| 2026-05-03 20:53 | 33.51943 | -92.30529 | 38116 ft | 429 kts | 226° |
| 2026-05-03 20:53 | 33.47249 | -92.34935 | 38125 ft | 429 kts | 226° |
| 2026-05-03 20:54 | 33.42519 | -92.39310 | 38136 ft | 433 kts | 222° |
| 2026-05-03 20:54 | 33.36944 | -92.42360 | 38143 ft | 453 kts | 201° |
| 2026-05-03 20:54 | 33.33820 | -92.43041 | 38146 ft | 459 kts | 195° |
| 2026-05-03 20:55 | 33.27502 | -92.44180 | 38146 ft | 459 kts | 195° |
| 2026-05-03 20:55 | 33.21178 | -92.45330 | 38149 ft | 460 kts | 195° |
| 2026-05-03 20:56 | 33.14857 | -92.46491 | 38152 ft | 460 kts | 196° |
| 2026-05-03 20:56 | 33.08532 | -92.47650 | 38142 ft | 460 kts | 196° |
| 2026-05-03 20:57 | 33.02211 | -92.48810 | 38136 ft | 460 kts | 196° |
| 2026-05-03 20:57 | 32.95881 | -92.49964 | 38146 ft | 460 kts | 196° |
| 2026-05-03 20:58 | 32.89554 | -92.51107 | 38147 ft | 460 kts | 196° |
| 2026-05-03 20:58 | 32.83227 | -92.52253 | 38139 ft | 460 kts | 196° |
| 2026-05-03 20:59 | 32.76904 | -92.53402 | 38158 ft | 460 kts | 196° |
| 2026-05-03 20:59 | 32.70587 | -92.54542 | 38162 ft | 459 kts | 196° |
| 2026-05-03 21:00 | 32.66357 | -92.55307 | 38161 ft | 459 kts | 196° |
| 2026-05-03 21:00 | 32.57943 | -92.56833 | 38126 ft | 459 kts | 196° |
| 2026-05-03 21:01 | 32.51622 | -92.57969 | 38149 ft | 460 kts | 196° |
| 2026-05-03 21:01 | 32.45294 | -92.59111 | 38159 ft | 460 kts | 196° |
| 2026-05-03 21:02 | 32.38972 | -92.60255 | 38168 ft | 460 kts | 196° |
| 2026-05-03 21:02 | 32.32649 | -92.61393 | 38189 ft | 460 kts | 196° |
| 2026-05-03 21:03 | 32.26321 | -92.62530 | 38174 ft | 460 kts | 197° |
| 2026-05-03 21:03 | 32.19992 | -92.63660 | 38183 ft | 460 kts | 197° |
| 2026-05-03 21:04 | 32.13663 | -92.64798 | 38192 ft | 460 kts | 197° |
| 2026-05-03 21:04 | 32.07334 | -92.65929 | 38195 ft | 460 kts | 197° |
| 2026-05-03 21:05 | 32.01053 | -92.67213 | 38141 ft | 451 kts | 205° |
| 2026-05-03 21:05 | 31.98192 | -92.68452 | 38155 ft | 438 kts | 216° |
| 2026-05-03 21:05 | 31.95573 | -92.70188 | 38157 ft | 426 kts | 224° |
| 2026-05-03 21:06 | 31.93273 | -92.72305 | 38168 ft | 415 kts | 233° |
| 2026-05-03 21:06 | 31.91200 | -92.74650 | 38168 ft | 413 kts | 234° |
| 2026-05-03 21:06 | 31.87056 | -92.79341 | 38173 ft | 414 kts | 233° |
| 2026-05-03 21:07 | 31.83012 | -92.84124 | 38167 ft | 410 kts | 237° |
| 2026-05-03 21:07 | 31.79245 | -92.89127 | 38173 ft | 408 kts | 239° |
| 2026-05-03 21:08 | 31.75506 | -92.94204 | 38145 ft | 408 kts | 238° |
| 2026-05-03 21:08 | 31.71772 | -92.99170 | 38173 ft | 408 kts | 238° |
| 2026-05-03 21:09 | 31.67982 | -93.04141 | 38168 ft | 408 kts | 238° |
| 2026-05-03 21:09 | 31.64194 | -93.09096 | 38156 ft | 408 kts | 238° |
| 2026-05-03 21:10 | 31.60404 | -93.14050 | 38173 ft | 407 kts | 238° |
| 2026-05-03 21:10 | 31.56622 | -93.18997 | 38179 ft | 407 kts | 238° |
| 2026-05-03 21:11 | 31.53451 | -93.23135 | 38182 ft | 407 kts | 238° |
| 2026-05-03 21:11 | 31.49664 | -93.28072 | 38183 ft | 407 kts | 238° |
| 2026-05-03 21:12 | 31.45883 | -93.33005 | 38151 ft | 407 kts | 239° |
| 2026-05-03 21:12 | 31.42129 | -93.37891 | 38168 ft | 406 kts | 239° |
| 2026-05-03 21:13 | 31.38343 | -93.42801 | 38176 ft | 406 kts | 239° |
| 2026-05-03 21:13 | 31.34564 | -93.47702 | 38180 ft | 405 kts | 239° |
| 2026-05-03 21:14 | 31.30790 | -93.52603 | 38163 ft | 407 kts | 239° |
| 2026-05-03 21:14 | 31.28876 | -93.55095 | 37888 ft | 416 kts | 238° |
| 2026-05-03 21:14 | 31.26933 | -93.57621 | 37624 ft | 418 kts | 238° |
| 2026-05-03 21:15 | 31.24981 | -93.60142 | 37363 ft | 418 kts | 238° |
| 2026-05-03 21:15 | 31.23040 | -93.62634 | 37026 ft | 412 kts | 238° |
| 2026-05-03 21:15 | 31.21122 | -93.65091 | 36547 ft | 407 kts | 238° |
| 2026-05-03 21:15 | 31.19229 | -93.67521 | 36074 ft | 402 kts | 238° |
| 2026-05-03 21:16 | 31.17364 | -93.69921 | 35583 ft | 397 kts | 238° |
| 2026-05-03 21:16 | 31.15523 | -93.72299 | 35106 ft | 393 kts | 239° |
| 2026-05-03 21:16 | 31.13698 | -93.74660 | 34611 ft | 390 kts | 238° |
| 2026-05-03 21:16 | 31.11885 | -93.77006 | 34133 ft | 388 kts | 238° |
| 2026-05-03 21:17 | 31.10058 | -93.79362 | 33606 ft | 385 kts | 238° |
| 2026-05-03 21:17 | 31.08871 | -93.80888 | 33285 ft | 382 kts | 238° |
| 2026-05-03 21:17 | 31.06495 | -93.83929 | 32676 ft | 376 kts | 238° |
| 2026-05-03 21:17 | 31.04740 | -93.86177 | 32212 ft | 373 kts | 238° |
| 2026-05-03 21:18 | 31.03002 | -93.88402 | 31750 ft | 370 kts | 238° |
| 2026-05-03 21:18 | 31.01298 | -93.90586 | 31322 ft | 367 kts | 238° |
| 2026-05-03 21:18 | 30.99584 | -93.92782 | 30868 ft | 365 kts | 238° |
| 2026-05-03 21:18 | 30.97882 | -93.94965 | 30406 ft | 363 kts | 238° |
| 2026-05-03 21:19 | 30.96186 | -93.97141 | 29909 ft | 362 kts | 237° |
| 2026-05-03 21:19 | 30.94489 | -93.99292 | 29472 ft | 358 kts | 237° |
| 2026-05-03 21:19 | 30.92802 | -94.01411 | 29024 ft | 355 kts | 237° |
| 2026-05-03 21:19 | 30.91131 | -94.03501 | 28613 ft | 351 kts | 236° |
| 2026-05-03 21:20 | 30.89472 | -94.05571 | 28186 ft | 347 kts | 237° |
| 2026-05-03 21:20 | 30.87835 | -94.07614 | 27782 ft | 343 kts | 237° |
| 2026-05-03 21:20 | 30.86217 | -94.09637 | 27370 ft | 339 kts | 237° |
| 2026-05-03 21:20 | 30.84621 | -94.11634 | 26957 ft | 336 kts | 237° |
| 2026-05-03 21:21 | 30.83039 | -94.13620 | 26533 ft | 333 kts | 237° |
| 2026-05-03 21:21 | 30.81471 | -94.15589 | 26112 ft | 331 kts | 237° |
| 2026-05-03 21:21 | 30.79912 | -94.17548 | 25676 ft | 329 kts | 237° |
| 2026-05-03 21:21 | 30.78357 | -94.19499 | 25224 ft | 328 kts | 236° |
| 2026-05-03 21:22 | 30.76808 | -94.21438 | 24795 ft | 327 kts | 236° |
| 2026-05-03 21:22 | 30.75262 | -94.23370 | 24349 ft | 326 kts | 236° |
| 2026-05-03 21:22 | 30.73719 | -94.25297 | 23912 ft | 326 kts | 236° |
| 2026-05-03 21:22 | 30.72178 | -94.27228 | 23410 ft | 325 kts | 236° |
| 2026-05-03 21:23 | 30.70643 | -94.29150 | 22953 ft | 324 kts | 235° |
| 2026-05-03 21:23 | 30.69113 | -94.31060 | 22523 ft | 322 kts | 235° |
| 2026-05-03 21:23 | 30.67592 | -94.32956 | 22098 ft | 320 kts | 234° |
| 2026-05-03 21:23 | 30.66077 | -94.34843 | 21688 ft | 318 kts | 234° |
| 2026-05-03 21:24 | 30.64570 | -94.36721 | 21267 ft | 317 kts | 234° |
| 2026-05-03 21:24 | 30.63067 | -94.38594 | 20856 ft | 316 kts | 233° |
| 2026-05-03 21:24 | 30.61571 | -94.40460 | 20447 ft | 316 kts | 233° |
| 2026-05-03 21:24 | 30.60078 | -94.42326 | 20035 ft | 315 kts | 233° |
| 2026-05-03 21:25 | 30.58582 | -94.44190 | 19625 ft | 315 kts | 232° |
| 2026-05-03 21:25 | 30.57088 | -94.46048 | 19218 ft | 315 kts | 232° |
| 2026-05-03 21:25 | 30.55587 | -94.47912 | 18815 ft | 316 kts | 232° |
| 2026-05-03 21:25 | 30.54086 | -94.49778 | 18403 ft | 316 kts | 231° |
| 2026-05-03 21:26 | 30.52624 | -94.51682 | 17961 ft | 315 kts | 234° |
| 2026-05-03 21:26 | 30.51246 | -94.53647 | 17568 ft | 312 kts | 236° |
| 2026-05-03 21:26 | 30.49915 | -94.55631 | 17180 ft | 311 kts | 236° |
| 2026-05-03 21:26 | 30.48590 | -94.57632 | 16640 ft | 315 kts | 236° |
| 2026-05-03 21:27 | 30.47256 | -94.59640 | 16244 ft | 314 kts | 236° |
| 2026-05-03 21:27 | 30.45914 | -94.61638 | 15858 ft | 313 kts | 235° |
| 2026-05-03 21:27 | 30.44569 | -94.63620 | 15478 ft | 313 kts | 235° |
| 2026-05-03 21:27 | 30.43219 | -94.65597 | 15098 ft | 312 kts | 234° |
| 2026-05-03 21:28 | 30.41872 | -94.67571 | 14717 ft | 312 kts | 234° |
| 2026-05-03 21:28 | 30.40527 | -94.69541 | 14339 ft | 312 kts | 234° |
| 2026-05-03 21:28 | 30.39160 | -94.71488 | 13955 ft | 312 kts | 232° |
| 2026-05-03 21:28 | 30.37744 | -94.73394 | 13542 ft | 311 kts | 231° |
| 2026-05-03 21:29 | 30.36315 | -94.75264 | 13159 ft | 310 kts | 230° |
| 2026-05-03 21:29 | 30.34884 | -94.77119 | 12770 ft | 308 kts | 230° |
| 2026-05-03 21:29 | 30.33460 | -94.78965 | 12379 ft | 307 kts | 230° |
| 2026-05-03 21:29 | 30.32046 | -94.80809 | 11992 ft | 305 kts | 230° |
| 2026-05-03 21:30 | 30.30642 | -94.82647 | 11587 ft | 304 kts | 230° |
| 2026-05-03 21:30 | 30.29246 | -94.84484 | 11198 ft | 304 kts | 230° |
| 2026-05-03 21:30 | 30.27865 | -94.86325 | 10891 ft | 300 kts | 231° |
| 2026-05-03 21:30 | 30.26528 | -94.88168 | 10834 ft | 300 kts | 232° |
| 2026-05-03 21:31 | 30.25198 | -94.90024 | 10768 ft | 299 kts | 232° |
| 2026-05-03 21:31 | 30.23874 | -94.91874 | 10707 ft | 300 kts | 232° |
| 2026-05-03 21:31 | 30.22556 | -94.93710 | 10637 ft | 299 kts | 232° |
| 2026-05-03 21:31 | 30.21223 | -94.95564 | 10560 ft | 299 kts | 232° |
| 2026-05-03 21:32 | 30.19898 | -94.97406 | 10477 ft | 297 kts | 232° |
| 2026-05-03 21:32 | 30.18578 | -94.99234 | 10392 ft | 296 kts | 232° |
| 2026-05-03 21:32 | 30.17255 | -95.01061 | 10309 ft | 296 kts | 232° |
| 2026-05-03 21:32 | 30.15938 | -95.02883 | 10228 ft | 295 kts | 232° |
| 2026-05-03 21:33 | 30.14620 | -95.04705 | 10146 ft | 295 kts | 232° |
| 2026-05-03 21:33 | 30.13357 | -95.06554 | 10039 ft | 289 kts | 239° |
| 2026-05-03 21:33 | 30.12519 | -95.08613 | 9791 ft | 280 kts | 255° |
| 2026-05-03 21:33 | 30.12120 | -95.10795 | 9532 ft | 277 kts | 261° |
| 2026-05-03 21:34 | 30.11781 | -95.12976 | 9234 ft | 275 kts | 261° |
| 2026-05-03 21:34 | 30.11438 | -95.15147 | 8936 ft | 274 kts | 261° |
| 2026-05-03 21:34 | 30.11095 | -95.17309 | 8640 ft | 273 kts | 261° |
| 2026-05-03 21:34 | 30.10752 | -95.19458 | 8301 ft | 271 kts | 261° |
| 2026-05-03 21:35 | 30.10410 | -95.21589 | 7910 ft | 269 kts | 261° |
| 2026-05-03 21:35 | 30.10072 | -95.23713 | 7530 ft | 268 kts | 261° |
| 2026-05-03 21:35 | 30.09738 | -95.25824 | 7140 ft | 267 kts | 260° |
| 2026-05-03 21:35 | 30.09406 | -95.27926 | 6751 ft | 266 kts | 260° |
| 2026-05-03 21:36 | 30.09227 | -95.30035 | 6351 ft | 264 kts | 270° |
| 2026-05-03 21:36 | 30.09240 | -95.32145 | 5948 ft | 262 kts | 270° |
| 2026-05-03 21:36 | 30.09247 | -95.34220 | 5766 ft | 252 kts | 269° |
| 2026-05-03 21:36 | 30.09251 | -95.36200 | 5637 ft | 241 kts | 269° |
| 2026-05-03 21:37 | 30.09259 | -95.38090 | 5496 ft | 231 kts | 270° |
| 2026-05-03 21:37 | 30.09274 | -95.39932 | 5239 ft | 228 kts | 268° |
| 2026-05-03 21:37 | 30.09280 | -95.41759 | 4937 ft | 227 kts | 268° |
| 2026-05-03 21:37 | 30.09274 | -95.43577 | 4646 ft | 226 kts | 268° |
| 2026-05-03 21:38 | 30.09259 | -95.45389 | 4346 ft | 225 kts | 268° |
| 2026-05-03 21:38 | 30.09235 | -95.47191 | 4060 ft | 224 kts | 267° |
| 2026-05-03 21:38 | 30.09200 | -95.48985 | 3760 ft | 223 kts | 264° |
| 2026-05-03 21:38 | 30.08738 | -95.50644 | 3458 ft | 217 kts | 232° |
| 2026-05-03 21:39 | 30.07571 | -95.51682 | 3133 ft | 213 kts | 197° |
| 2026-05-03 21:39 | 30.06115 | -95.51977 | 2779 ft | 213 kts | 184° |
| 2026-05-03 21:39 | 30.04646 | -95.52071 | 2583 ft | 210 kts | 181° |
| 2026-05-03 21:39 | 30.03221 | -95.51923 | 2458 ft | 203 kts | 163° |
| 2026-05-03 21:40 | 30.02007 | -95.51191 | 2369 ft | 193 kts | 142° |
| 2026-05-03 21:40 | 30.01153 | -95.50039 | 2261 ft | 188 kts | 120° |
| 2026-05-03 21:40 | 30.00731 | -95.48630 | 2151 ft | 187 kts | 99° |
| 2026-05-03 21:40 | 30.00697 | -95.47152 | 1979 ft | 180 kts | 92° |
| 2026-05-03 21:41 | 30.00702 | -95.45776 | 1791 ft | 162 kts | 91° |
| 2026-05-03 21:41 | 30.00705 | -95.44541 | 1584 ft | 147 kts | 91° |
| 2026-05-03 21:41 | 30.00706 | -95.43401 | 1386 ft | 140 kts | 91° |
| 2026-05-03 21:41 | 30.00708 | -95.42298 | 1218 ft | 136 kts | 93° |
| 2026-05-03 21:42 | 30.00707 | -95.41213 | 1046 ft | 134 kts | 93° |
| 2026-05-03 21:42 | 30.00711 | -95.40149 | 871 ft | 130 kts | 90° |
| 2026-05-03 21:42 | 30.00715 | -95.39097 | 746 ft | 131 kts | 91° |
| 2026-05-03 21:42 | 30.00727 | -95.38056 | 553 ft | 131 kts | 90° |
| 2026-05-03 21:43 | 30.00722 | -95.37021 | 333 ft | 128 kts | 91° |
| 2026-05-03 21:43 | 30.00720 | -95.35997 | 173 ft | 127 kts | 92° |
| 2026-05-03 21:43 | 30.00717 | -95.35026 | 109 ft | 107 kts | 90° |
| 2026-05-03 21:43 | 30.00717 | -95.34368 | 106 ft | 57 kts | 90° |
| 2026-05-03 21:44 | 30.00703 | -95.34059 | 107 ft | 31 kts | 107° |
| 2026-05-03 21:44 | 30.00610 | -95.33846 | 107 ft | 28 kts | 121° |
| 2026-05-03 21:44 | 30.00553 | -95.33665 | 107 ft | 20 kts | 91° |
| 2026-05-03 21:44 | 30.00554 | -95.33491 | 107 ft | 23 kts | 90° |
| 2026-05-03 21:45 | 30.00555 | -95.33296 | 107 ft | 25 kts | 91° |
| 2026-05-03 21:45 | 30.00489 | -95.33105 | 107 ft | 27 kts | 116° |
| 2026-05-03 21:45 | 30.00381 | -95.32939 | 107 ft | 26 kts | 130° |
| 2026-05-03 21:45 | 30.00260 | -95.32773 | 106 ft | 28 kts | 130° |
| 2026-05-03 21:46 | 30.00139 | -95.32607 | 107 ft | 24 kts | 130° |
| 2026-05-03 21:46 | 30.00009 | -95.32540 | 107 ft | 22 kts | 179° |
| 2026-05-03 21:46 | 29.99850 | -95.32539 | 107 ft | 24 kts | 180° |
| 2026-05-03 21:46 | 29.99676 | -95.32539 | 107 ft | 26 kts | 180° |
| 2026-05-03 21:47 | 29.99489 | -95.32539 | 107 ft | 28 kts | 180° |
| 2026-05-03 21:47 | 29.99305 | -95.32539 | 106 ft | 21 kts | 180° |
| 2026-05-03 21:47 | 29.99158 | -95.32538 | 107 ft | 21 kts | 180° |
| 2026-05-03 21:47 | 29.99090 | -95.32620 | 107 ft | 16 kts | 268° |
| 2026-05-03 21:48 | 29.99090 | -95.32743 | 107 ft | 15 kts | 270° |
| 2026-05-03 21:48 | 29.99090 | -95.32856 | 107 ft | 14 kts | 270° |
| 2026-05-03 21:48 | 29.99091 | -95.32962 | 107 ft | 13 kts | 270° |
| 2026-05-03 21:48 | 29.99091 | -95.33063 | 107 ft | 12 kts | 270° |
| 2026-05-03 21:49 | 29.99091 | -95.33159 | 107 ft | 12 kts | 270° |
| 2026-05-03 21:49 | 29.99091 | -95.33252 | 107 ft | 13 kts | 270° |
| 2026-05-03 21:49 | 29.99091 | -95.33368 | 107 ft | 14 kts | 270° |
| 2026-05-03 21:49 | 29.99090 | -95.33480 | 107 ft | 14 kts | 269° |
| 2026-05-03 21:50 | 29.99090 | -95.33586 | 107 ft | 13 kts | 270° |
| 2026-05-03 21:50 | 29.99045 | -95.33648 | 107 ft | 11 kts | 182° |
| 2026-05-03 21:50 | 29.98962 | -95.33650 | 107 ft | 13 kts | 189° |
| 2026-05-03 21:50 | 29.98898 | -95.33714 | 106 ft | 12 kts | 221° |
| 2026-05-03 21:51 | 29.98834 | -95.33748 | 107 ft | 7 kts | 200° |
| 2026-05-03 21:51 | 29.98810 | -95.33754 | 107 ft | 2 kts | 183° |
| 2026-05-03 21:51 | 29.98805 | -95.33752 | 107 ft | 0 kts | 167° |
| 2026-05-03 21:51 | 29.98804 | -95.33752 | 107 ft | 0 kts | 167° |
| 2026-05-03 21:52 | 29.98800 | -95.33751 | 107 ft | 0 kts | 167° |